Meteo Giornale » Osservazioni meteo Francia » Evreux
ore: 19:00 - Osservazioni Meteo Evreux
Lat. 49° 1' N Lon. 1° 13' E Alt. 141 metri s.l.m.
22 °C
Sereno
Temp. 24 Ore
16 °C
23 °C
Ovest
20.3 Km/h
Dew point 11 °C
Umidità 49 %
Visibilità 10 Km
Il sole sorge alle ore 07:10
Il sole tramonta alle ore 20:40
| Data e Ora | Cielo e Fenomeni | T °C | DP °C | Um. % | Pres. hPa | Vis. km | Vento km/h | |
|---|---|---|---|---|---|---|---|---|
| Oggi h: 19:00 | Sereno | 22 | 11 | 49 | 1019 | 10 | O 20.3 | |
| Oggi h: 18:30 | Poco Nuvoloso | 22 | 12 | 53 | 1018 | 10 | O 22.2 | |
| Oggi h: 18:00 | Poco Nuvoloso | 23 | 11 | 46 | 1018 | 10 | O 24 | |
| Oggi h: 17:30 | Poco Nuvoloso | 22 | 11 | 49 | 1018 | 10 | O 27.8 | |
| Oggi h: 17:00 | Nuvoloso | 22 | 12 | 53 | 1018 | 10 | O 24 | |
| Oggi h: 16:30 | Poco Nuvoloso | 23 | 12 | 49 | 1018 | 10 | O 24 | |
| Oggi h: 16:00 | Poco Nuvoloso | 23 | 11 | 46 | 1018 | 10 | O 27.8 | |
| Oggi h: 15:30 | Molto Nuvoloso | 22 | 13 | 56 | 1017 | 10 | O 20.3 | |
| Oggi h: 15:00 | Nuvoloso | 21 | 15 | 68 | 1017 | 10 | O/SO 18.5 | |
| Oggi h: 14:30 | Sereno | 19 | 15 | 77 | 1017 | 10 | O/SO 20.3 | |
| Oggi h: 14:00 | Molto Nuvoloso | 18 | 16 | 88 | 1017 | 10 | O/SO 25.9 | |
| Oggi h: 13:30 | Coperto | 20 | 13 | 64 | 1016 | 10 | O 22.2 | |
| Oggi h: 13:00 | Coperto | 19 | 14 | 72 | 1016 | 10 | O/SO 22.2 | |
| Oggi h: 12:30 | Molto Nuvoloso | 20 | 14 | 68 | 1016 | 10 | O/SO 18.5 | |
| Oggi h: 12:00 | Coperto | 17 | 15 | 88 | 1016 | 10 | O/SO 18.5 | |
| Oggi h: 11:30 | Pioggia Foschia | 17 | 15 | 88 | 1016 | 5 | O 20.3 | |
| Oggi h: 11:00 | Coperto | 19 | 13 | 68 | 1015 | 10 | O/SO 22.2 | |
| Oggi h: 10:30 | Coperto | 19 | 13 | 68 | 1015 | 10 | O/SO 18.5 | |
| Oggi h: 10:00 | Coperto | 19 | 13 | 68 | 1015 | 10 | O/SO 22.2 | |
| Oggi h: 09:30 | Coperto | 18 | 13 | 72 | 1014 | 10 | O/SO 18.5 | |
| Oggi h: 09:00 | Coperto | 18 | 14 | 77 | 1014 | 10 | SO 22.2 | |
| Oggi h: 08:30 | Molto Nuvoloso | 17 | 13 | 77 | 1014 | 10 | S/SO 18.5 | |
| Oggi h: 08:00 | Coperto | 17 | 13 | 77 | 1013 | 10 | SO 22.2 | |
| Oggi h: 07:30 | Molto Nuvoloso | 16 | 13 | 82 | 1013 | 10 | S/SO 18.5 | |
| Oggi h: 07:00 | Molto Nuvoloso | 16 | 13 | 82 | 1013 | 10 | SO 18.5 | |
| Oggi h: 06:30 | Poco Nuvoloso | 16 | 13 | 82 | 1012 | 10 | S/SO 20.3 | |
| Oggi h: 06:00 | Sereno | 16 | 14 | 87 | 1012 | 10 | S/SO 22.2 | |
| Oggi h: 05:30 | Nuvoloso | 17 | 14 | 82 | 1012 | 10 | S/SO 25.9 | |
| Oggi h: 05:00 | Molto Nuvoloso | 17 | 14 | 82 | 1012 | 10 | S/SO 24 | |
| Oggi h: 04:30 | Poco Nuvoloso | 16 | 14 | 87 | 1012 | 10 | S/SO 22.2 | |
| Oggi h: 04:00 | Sereno | 16 | 14 | 87 | 1012 | 10 | S/SO 20.3 | |
| Oggi h: 03:30 | Poco Nuvoloso | 16 | 14 | 87 | 1012 | 10 | S/SO 20.3 | |
| Oggi h: 03:00 | Poco Nuvoloso | 17 | 14 | 82 | 1012 | 10 | S/SO 24 | |
| Oggi h: 02:30 | Poco Nuvoloso | 17 | 14 | 82 | 1012 | 10 | S/SO 25.9 | |
| Oggi h: 02:00 | Poco Nuvoloso | 17 | 14 | 82 | 1012 | 10 | S/SO 24 | |
| Oggi h: 01:30 | Poco Nuvoloso | 17 | 14 | 82 | 1012 | 10 | S/SO 25.9 | |
| Oggi h: 01:00 | Sereno | 17 | 13 | 77 | 1012 | 10 | S/SO 25.9 | |
| Oggi h: 00:30 | Sereno | 17 | 13 | 77 | 1012 | 10 | S/SO 18.5 | |
| Oggi h: 00:00 | Sereno | 18 | 13 | 72 | 1012 | 10 | S/SO 20.3 | |
| Ieri h: 23:30 | Sereno | 18 | 13 | 72 | 1012 | 10 | S/SO 22.2 | |
| Ieri h: 23:00 | Sereno | 18 | 13 | 72 | 1012 | 10 | SO 18.5 | |
| Ieri h: 22:30 | Sereno | 18 | 13 | 72 | 1012 | 10 | SO 16.7 | |
| Ieri h: 22:00 | Sereno | 19 | 13 | 68 | 1012 | 10 | SO 13 | |
| Ieri h: 21:30 | Sereno | 20 | 13 | 64 | 1012 | 10 | O/SO 22.2 | |
| Ieri h: 21:00 | Sereno | 20 | 14 | 68 | 1012 | 10 | S/SO 16.7 | |
| Ieri h: 20:30 | Sereno | 21 | 14 | 64 | 1011 | 10 | S/SO 16.7 | |
| Ieri h: 20:00 | Molto Nuvoloso | 22 | 14 | 60 | 1012 | 10 | SO 16.7 | |



